createdAt,value
2023-01-22T00:01:25.685Z,24.43
2023-01-22T00:03:55.099Z,28.73
2023-01-22T00:06:23.969Z,29.05
2023-01-22T00:08:52.950Z,27.70
2023-01-22T00:11:21.472Z,29.70
2023-01-22T00:13:50.295Z,28.60
2023-01-22T00:16:18.696Z,31.08
2023-01-22T00:18:46.889Z,32.28
2023-01-22T00:21:15.679Z,28.77
2023-01-22T00:23:43.810Z,23.67
2023-01-22T00:26:15.866Z,26.45
2023-01-22T00:28:46.043Z,30.08
2023-01-22T00:31:16.333Z,30.15
2023-01-22T00:33:46.454Z,26.13
2023-01-22T00:36:19.239Z,26.67
2023-01-22T00:38:50.789Z,29.27
2023-01-22T00:41:20.260Z,34.15
2023-01-22T00:43:51.138Z,35.92
2023-01-22T00:46:22.623Z,33.38
2023-01-22T00:48:51.350Z,29.00
2023-01-22T00:51:19.880Z,29.63
2023-01-22T00:53:48.321Z,31.80
2023-01-22T00:56:17.653Z,34.30
2023-01-22T00:58:46.322Z,32.28
2023-01-22T01:01:15.849Z,36.13
2023-01-22T01:03:44.399Z,29.95
2023-01-22T01:06:18.403Z,32.38
2023-01-22T01:08:49.341Z,33.97
2023-01-22T01:11:24.234Z,31.35
2023-01-22T01:13:55.598Z,33.63
2023-01-22T01:16:31.144Z,34.13
2023-01-22T01:19:05.616Z,27.55
2023-01-22T01:21:34.343Z,29.25
2023-01-22T01:24:03.087Z,31.35
2023-01-22T01:26:37.874Z,31.27
2023-01-22T01:29:10.283Z,25.70
2023-01-22T01:31:39.825Z,26.92
2023-01-22T01:36:54.539Z,30.30
2023-01-22T01:39:23.403Z,29.20
2023-01-22T01:41:51.738Z,27.92
2023-01-22T01:44:23.866Z,30.90
2023-01-22T01:47:05.487Z,34.03
2023-01-22T01:49:51.320Z,28.98
2023-01-22T01:52:20.906Z,33.58
2023-01-22T01:54:56.056Z,38.95
2023-01-22T01:57:30.978Z,39.22
2023-01-22T02:00:00.865Z,33.65
2023-01-22T02:02:29.322Z,28.48
2023-01-22T02:04:57.907Z,30.17
2023-01-22T02:07:26.028Z,30.17
2023-01-22T02:09:57.668Z,34.28
2023-01-22T02:12:25.792Z,30.55
2023-01-22T02:14:54.869Z,28.92
2023-01-22T02:17:23.229Z,27.10
2023-01-22T02:19:52.499Z,27.58
2023-01-22T02:22:26.494Z,30.40
2023-01-22T02:24:55.979Z,24.55
2023-01-22T02:27:24.616Z,27.85
2023-01-22T02:29:57.033Z,22.98
2023-01-22T02:32:25.216Z,27.38
2023-01-22T02:34:56.121Z,26.00
2023-01-22T02:37:24.443Z,25.00
2023-01-22T02:39:55.665Z,32.80
2023-01-22T02:42:24.406Z,27.35
2023-01-22T02:44:56.143Z,30.35
2023-01-22T02:47:24.494Z,26.20
2023-01-22T02:49:52.500Z,25.88
2023-01-22T02:52:21.009Z,22.90
2023-01-22T02:54:49.833Z,23.38
2023-01-22T02:57:20.236Z,25.52
2023-01-22T02:59:49.597Z,28.35
2023-01-22T03:02:17.782Z,31.13
2023-01-22T03:04:46.757Z,29.15
2023-01-22T03:07:15.632Z,31.52
2023-01-22T03:09:44.962Z,32.38
2023-01-22T03:12:13.035Z,31.25
2023-01-22T03:15:00.839Z,30.15
2023-01-22T03:17:47.578Z,28.55
2023-01-22T03:20:34.956Z,30.42
2023-01-22T03:23:03.210Z,34.40
2023-01-22T03:25:31.702Z,33.70
2023-01-22T03:28:08.970Z,30.48
2023-01-22T03:30:39.484Z,35.70
2023-01-22T03:33:09.033Z,36.20
2023-01-22T03:35:37.535Z,32.70
2023-01-22T03:38:13.847Z,38.13
2023-01-22T03:40:42.115Z,34.97
2023-01-22T03:43:10.787Z,31.55
2023-01-22T03:45:39.222Z,33.78
2023-01-22T03:48:10.811Z,34.95
2023-01-22T03:50:41.539Z,43.95
2023-01-22T03:53:09.656Z,33.10
2023-01-22T03:55:37.958Z,34.22
2023-01-22T03:58:06.543Z,33.13
2023-01-22T04:00:35.878Z,41.63
2023-01-22T04:03:07.141Z,36.05
2023-01-22T04:05:39.635Z,36.65
2023-01-22T04:08:08.309Z,35.03
2023-01-22T04:10:40.661Z,37.60
2023-01-22T04:13:09.232Z,46.67
2023-01-22T04:15:39.963Z,42.83
2023-01-22T04:18:17.827Z,39.05
2023-01-22T04:21:04.491Z,35.50
2023-01-22T04:23:42.190Z,40.10
2023-01-22T04:26:10.418Z,34.33
2023-01-22T04:28:38.423Z,38.63
2023-01-22T04:31:08.899Z,41.08
2023-01-22T04:33:42.594Z,39.38
2023-01-22T04:36:15.108Z,39.47
2023-01-22T04:38:43.492Z,35.20
2023-01-22T04:41:11.569Z,41.58
2023-01-22T04:43:39.830Z,40.72
2023-01-22T04:46:07.866Z,37.33
2023-01-22T04:48:35.968Z,39.30
2023-01-22T04:51:04.627Z,42.38
2023-01-22T04:53:34.315Z,35.85
2023-01-22T04:56:02.507Z,41.50
2023-01-22T04:58:31.567Z,37.53
2023-01-22T05:01:04.081Z,39.22
2023-01-22T05:03:32.641Z,35.95
2023-01-22T05:06:05.194Z,42.38
2023-01-22T05:08:36.277Z,33.08
2023-01-22T05:11:05.467Z,39.92
2023-01-22T05:13:48.745Z,38.53
2023-01-22T05:16:18.958Z,41.55
2023-01-22T05:18:48.265Z,38.00
2023-01-22T05:21:17.014Z,39.50
2023-01-22T05:23:45.265Z,41.28
2023-01-22T05:26:13.281Z,40.55
2023-01-22T05:28:46.367Z,34.47
2023-01-22T05:31:32.964Z,35.45
2023-01-22T05:34:03.771Z,37.63
2023-01-22T05:36:32.317Z,34.80
2023-01-22T05:39:06.367Z,38.70
2023-01-22T05:41:35.830Z,31.20
2023-01-22T05:44:05.447Z,40.83
2023-01-22T05:46:34.227Z,35.50
2023-01-22T05:49:24.852Z,36.70
2023-01-22T05:51:59.280Z,28.80
2023-01-22T05:54:27.656Z,36.13
2023-01-22T05:56:57.403Z,40.35
2023-01-22T05:59:26.507Z,41.75
2023-01-22T06:02:02.811Z,31.75
2023-01-22T06:04:33.298Z,33.50
2023-01-22T06:07:04.461Z,35.58
2023-01-22T06:09:33.659Z,34.35
2023-01-22T06:12:02.581Z,32.67
2023-01-22T06:14:31.815Z,33.95
2023-01-22T06:17:02.210Z,31.45
2023-01-22T06:19:41.286Z,37.25
2023-01-22T06:22:09.414Z,32.55
2023-01-22T06:24:48.086Z,33.40
2023-01-22T06:27:18.563Z,32.70
2023-01-22T06:29:54.035Z,29.73
2023-01-22T06:32:22.441Z,35.97
2023-01-22T06:34:52.459Z,35.20
2023-01-22T06:37:23.339Z,29.42
2023-01-22T06:39:53.740Z,29.83
2023-01-22T06:42:26.393Z,28.58
2023-01-22T06:44:55.462Z,29.65
2023-01-22T06:49:58.710Z,25.95
2023-01-22T06:52:27.552Z,33.28
2023-01-22T06:54:56.352Z,29.33
2023-01-22T06:57:26.816Z,32.88
2023-01-22T06:59:55.365Z,32.97
2023-01-22T07:02:23.614Z,31.48
2023-01-22T07:04:52.444Z,33.05
2023-01-22T07:07:20.566Z,37.03
2023-01-22T07:09:49.161Z,30.15
2023-01-22T07:12:18.184Z,34.75
2023-01-22T07:14:46.139Z,28.98
2023-01-22T07:17:14.455Z,33.60
2023-01-22T07:19:42.541Z,37.58
2023-01-22T07:22:10.563Z,33.42
2023-01-22T07:24:39.005Z,34.67
2023-01-22T07:27:07.992Z,35.45
2023-01-22T07:29:36.308Z,34.90
2023-01-22T07:32:04.500Z,35.60
2023-01-22T07:34:32.928Z,33.17
2023-01-22T07:37:02.059Z,33.63
2023-01-22T07:39:30.546Z,36.30
2023-01-22T07:42:02.930Z,35.38
2023-01-22T07:44:32.070Z,32.00
2023-01-22T07:47:00.820Z,32.78
2023-01-22T07:49:29.067Z,33.22
2023-01-22T07:51:57.129Z,31.40
2023-01-22T07:54:26.256Z,31.40
2023-01-22T07:56:54.997Z,36.17
2023-01-22T07:59:23.145Z,32.10
2023-01-22T08:01:51.312Z,28.92
2023-01-22T08:04:19.490Z,33.45
2023-01-22T08:06:47.533Z,34.30
2023-01-22T08:09:23.555Z,30.02
2023-01-22T08:11:53.576Z,30.90
2023-01-22T08:14:24.137Z,37.78
2023-01-22T08:16:52.459Z,34.67
2023-01-22T08:19:20.627Z,37.78
2023-01-22T08:21:48.999Z,30.98
2023-01-22T08:24:17.360Z,36.45
2023-01-22T08:26:45.814Z,31.08
2023-01-22T08:29:14.816Z,33.00
2023-01-22T08:31:44.325Z,35.38
2023-01-22T08:34:12.686Z,33.58
2023-01-22T08:36:41.808Z,36.67
2023-01-22T08:39:11.096Z,35.67
2023-01-22T08:41:40.005Z,33.83
2023-01-22T08:44:12.048Z,35.75
2023-01-22T08:46:41.402Z,37.05
2023-01-22T08:49:09.860Z,33.70
2023-01-22T08:51:37.754Z,37.92
2023-01-22T08:54:06.676Z,41.80
2023-01-22T08:56:35.661Z,40.35
2023-01-22T08:59:06.884Z,40.10
2023-01-22T09:01:35.491Z,39.17
2023-01-22T09:04:08.292Z,39.50
2023-01-22T09:06:38.573Z,40.75
2023-01-22T09:09:07.650Z,34.92
2023-01-22T09:11:35.969Z,36.28
2023-01-22T09:14:04.519Z,39.05
2023-01-22T09:16:33.687Z,39.78
2023-01-22T09:19:02.168Z,37.83
2023-01-22T09:21:30.214Z,39.50
2023-01-22T09:23:58.272Z,37.78
2023-01-22T09:26:26.767Z,39.17
2023-01-22T09:29:00.808Z,42.85
2023-01-22T09:31:29.029Z,45.47
2023-01-22T09:33:57.204Z,38.17
2023-01-22T09:36:25.356Z,36.75
2023-01-22T09:38:53.842Z,37.08
2023-01-22T09:41:47.368Z,41.45
2023-01-22T09:44:42.534Z,42.95
2023-01-22T09:47:40.646Z,40.80
2023-01-22T09:50:23.317Z,36.67
2023-01-22T09:52:59.552Z,38.65
2023-01-22T09:55:36.809Z,37.00
2023-01-22T09:58:14.012Z,40.03
2023-01-22T10:01:05.802Z,40.05
2023-01-22T10:03:49.829Z,43.25
2023-01-22T10:06:23.001Z,41.40
2023-01-22T10:09:19.224Z,45.92
2023-01-22T10:11:54.151Z,45.83
2023-01-22T10:14:29.583Z,40.08
2023-01-22T10:17:01.848Z,43.28
2023-01-22T10:19:48.477Z,48.05
2023-01-22T10:22:24.977Z,46.42
2023-01-22T10:24:58.585Z,43.95
2023-01-22T10:27:41.813Z,43.20
2023-01-22T10:30:22.251Z,47.58
2023-01-22T10:33:05.991Z,45.30
2023-01-22T10:35:46.886Z,45.50
2023-01-22T10:38:32.905Z,44.37
2023-01-22T10:41:04.255Z,48.75
2023-01-22T10:43:36.204Z,43.72
2023-01-22T10:46:18.563Z,44.47
2023-01-22T10:48:59.575Z,49.03
2023-01-22T10:51:40.192Z,38.92
2023-01-22T10:54:22.585Z,42.58
2023-01-22T10:56:53.637Z,40.15
2023-01-22T10:59:30.060Z,52.08
2023-01-22T11:02:12.009Z,63.75
2023-01-22T11:07:23.365Z,44.90
2023-01-22T11:10:30.221Z,41.63
2023-01-22T11:13:10.491Z,47.65
2023-01-22T11:16:11.250Z,48.00
2023-01-22T11:18:46.562Z,47.97
2023-01-22T11:21:24.172Z,39.95
2023-01-22T11:24:16.294Z,46.38
2023-01-22T11:27:08.260Z,46.95
2023-01-22T11:30:27.361Z,53.70
2023-01-22T11:33:20.244Z,45.03
2023-01-22T11:36:26.745Z,44.67
2023-01-22T11:39:27.263Z,45.97
2023-01-22T11:42:46.340Z,48.83
2023-01-22T11:45:32.496Z,42.60
2023-01-22T11:48:40.790Z,45.58
2023-01-22T11:51:37.492Z,47.25
2023-01-22T11:54:39.167Z,47.80
2023-01-22T11:57:29.071Z,47.95
2023-01-22T12:00:17.205Z,47.95
2023-01-22T12:03:43.305Z,42.65
2023-01-22T12:07:17.216Z,51.88
2023-01-22T12:10:20.976Z,51.10
2023-01-22T12:12:57.856Z,46.15
2023-01-22T12:15:55.376Z,44.95
2023-01-22T12:19:05.405Z,42.92
2023-01-22T12:22:17.099Z,40.10
2023-01-22T12:25:11.668Z,40.58
2023-01-22T12:27:54.662Z,44.10
2023-01-22T12:30:44.252Z,47.72
2023-01-22T12:33:20.338Z,42.88
2023-01-22T12:35:52.665Z,41.33
2023-01-22T12:38:40.645Z,39.63
2023-01-22T12:41:51.916Z,44.60
2023-01-22T12:45:20.380Z,40.05
2023-01-22T12:48:29.842Z,37.88
2023-01-22T12:50:59.304Z,36.90
2023-01-22T12:53:34.944Z,36.67
2023-01-22T12:56:08.514Z,41.47
2023-01-22T12:58:43.349Z,40.65
2023-01-22T13:01:12.076Z,39.22
2023-01-22T13:03:42.087Z,38.10
2023-01-22T13:06:32.957Z,37.67
2023-01-22T13:09:01.609Z,40.05
2023-01-22T13:11:37.622Z,41.78
2023-01-22T13:14:21.805Z,39.17
2023-01-22T13:17:06.255Z,46.00
2023-01-22T13:19:42.601Z,45.53
2023-01-22T13:22:21.486Z,43.33
2023-01-22T13:24:59.227Z,40.65
2023-01-22T13:27:28.877Z,47.72
2023-01-22T13:30:20.414Z,37.33
2023-01-22T13:32:49.522Z,40.53
2023-01-22T13:35:19.868Z,45.72
2023-01-22T13:37:52.058Z,44.42
2023-01-22T13:40:50.719Z,42.70
2023-01-22T13:43:23.417Z,41.65
2023-01-22T13:45:54.988Z,41.33
2023-01-22T13:48:27.189Z,48.80
2023-01-22T13:51:03.264Z,42.85
2023-01-22T13:53:54.793Z,35.22
2023-01-22T13:56:26.936Z,59.88
2023-01-22T13:59:23.145Z,47.38
2023-01-22T14:01:52.270Z,42.05
2023-01-22T14:04:37.923Z,46.22
2023-01-22T14:07:07.077Z,43.15
2023-01-22T14:09:39.277Z,50.53
2023-01-22T14:12:19.794Z,43.13
2023-01-22T14:14:52.828Z,43.35
2023-01-22T14:17:34.785Z,48.08
2023-01-22T14:20:04.521Z,43.28
2023-01-22T14:22:32.764Z,44.03
2023-01-22T14:25:01.223Z,46.75
2023-01-22T14:27:50.032Z,46.47
2023-01-22T14:30:21.181Z,46.20
2023-01-22T14:32:49.585Z,42.53
2023-01-22T14:35:19.950Z,45.60
2023-01-22T14:37:50.116Z,44.70
2023-01-22T14:40:19.802Z,43.38
2023-01-22T14:42:48.850Z,44.83
2023-01-22T14:45:19.337Z,43.65
2023-01-22T14:47:56.681Z,42.88
2023-01-22T14:50:24.868Z,39.08
2023-01-22T14:52:53.751Z,40.78
2023-01-22T14:55:22.759Z,41.50
2023-01-22T14:57:52.813Z,42.30
2023-01-22T15:00:24.428Z,38.50
2023-01-22T15:02:57.048Z,42.63
2023-01-22T15:05:26.916Z,35.70
2023-01-22T15:07:55.685Z,40.58
2023-01-22T15:10:23.998Z,37.83
2023-01-22T15:12:53.743Z,45.40
2023-01-22T15:15:26.639Z,44.58
2023-01-22T15:17:57.291Z,41.45
2023-01-22T15:20:25.980Z,49.03
2023-01-22T15:22:55.703Z,45.28
2023-01-22T15:25:23.980Z,42.63
2023-01-22T15:27:52.357Z,33.40
2023-01-22T15:30:21.040Z,39.22
2023-01-22T15:32:49.775Z,35.22
2023-01-22T15:35:18.170Z,38.72
2023-01-22T15:37:48.333Z,39.60
2023-01-22T15:40:16.795Z,35.75
2023-01-22T15:42:45.315Z,45.40
2023-01-22T15:45:13.961Z,31.48
2023-01-22T15:47:42.213Z,37.05
2023-01-22T15:50:11.557Z,37.17
2023-01-22T15:52:39.946Z,38.03
2023-01-22T15:55:08.866Z,34.83
2023-01-22T15:57:38.556Z,34.97
2023-01-22T16:00:11.767Z,38.72
2023-01-22T16:02:45.529Z,36.58
2023-01-22T16:05:13.724Z,35.63
2023-01-22T16:07:41.882Z,33.80
2023-01-22T16:10:11.193Z,31.30
2023-01-22T16:12:39.380Z,33.65
2023-01-22T16:15:08.285Z,34.08
2023-01-22T16:17:36.657Z,31.60
2023-01-22T16:20:05.679Z,33.53
2023-01-22T16:22:33.799Z,28.85
2023-01-22T16:25:02.409Z,34.33
2023-01-22T16:27:31.438Z,36.72
2023-01-22T16:30:01.454Z,33.83
2023-01-22T16:32:30.381Z,37.45
2023-01-22T16:34:59.115Z,33.00
2023-01-22T16:37:27.689Z,34.08
2023-01-22T16:39:56.383Z,27.67
2023-01-22T16:42:25.146Z,30.98
2023-01-22T16:44:53.792Z,34.63
2023-01-22T16:47:22.572Z,30.02
2023-01-22T16:49:50.972Z,35.78
2023-01-22T16:52:22.704Z,29.15
2023-01-22T16:54:52.307Z,32.28
2023-01-22T16:57:23.797Z,30.00
2023-01-22T16:59:56.950Z,32.25
2023-01-22T17:02:26.777Z,34.30
2023-01-22T17:04:58.858Z,32.42
2023-01-22T17:07:34.063Z,29.52
2023-01-22T17:10:03.214Z,32.00
2023-01-22T17:12:34.377Z,37.45
2023-01-22T17:15:03.013Z,30.63
2023-01-22T17:17:31.948Z,33.13
2023-01-22T17:20:00.232Z,32.92
2023-01-22T17:22:28.675Z,32.50
2023-01-22T17:24:57.275Z,34.13
2023-01-22T17:27:26.110Z,30.95
2023-01-22T17:29:54.863Z,31.17
2023-01-22T17:32:26.758Z,30.70
2023-01-22T17:34:55.173Z,36.47
2023-01-22T17:37:24.108Z,29.65
2023-01-22T17:39:53.015Z,33.05
2023-01-22T17:42:22.219Z,29.35
2023-01-22T17:44:50.972Z,31.63
2023-01-22T17:47:19.662Z,31.90
2023-01-22T17:49:49.100Z,31.63
2023-01-22T17:52:23.705Z,28.38
2023-01-22T17:54:53.939Z,30.02
2023-01-22T17:57:22.678Z,28.48
2023-01-22T17:59:51.597Z,29.75
2023-01-22T18:02:19.755Z,25.05
2023-01-22T18:04:48.222Z,25.15
2023-01-22T18:07:18.467Z,28.83
2023-01-22T18:09:47.006Z,29.00
2023-01-22T18:12:15.172Z,29.27
2023-01-22T18:14:44.065Z,30.50
2023-01-22T18:17:12.634Z,25.88
2023-01-22T18:19:40.829Z,30.50
2023-01-22T18:22:09.050Z,28.38
2023-01-22T18:24:37.471Z,26.30
2023-01-22T18:27:06.797Z,24.25
2023-01-22T18:29:35.129Z,25.33
2023-01-22T18:32:03.592Z,25.60
2023-01-22T18:34:31.730Z,23.65
2023-01-22T18:36:59.871Z,28.35
2023-01-22T18:39:28.617Z,26.20
2023-01-22T18:41:56.842Z,30.60
2023-01-22T18:44:28.065Z,26.90
2023-01-22T18:46:59.630Z,28.52
2023-01-22T18:49:29.560Z,30.27
2023-01-22T18:52:01.320Z,28.58
2023-01-22T18:54:30.413Z,28.75
2023-01-22T18:56:59.110Z,26.55
2023-01-22T18:59:28.394Z,26.23
2023-01-22T19:01:59.226Z,27.35
2023-01-22T19:04:29.745Z,29.13
2023-01-22T19:07:01.617Z,29.20
2023-01-22T19:09:32.286Z,29.13
2023-01-22T19:12:01.186Z,27.20
2023-01-22T19:14:30.093Z,26.60
2023-01-22T19:17:00.553Z,28.83
2023-01-22T19:19:30.036Z,23.20
2023-01-22T19:21:58.918Z,25.88
2023-01-22T19:24:28.816Z,27.20
2023-01-22T19:27:01.765Z,28.83
2023-01-22T19:29:30.604Z,25.08
2023-01-22T19:31:59.299Z,25.42
2023-01-22T19:34:31.359Z,27.15
2023-01-22T19:37:02.863Z,24.45
2023-01-22T19:39:33.001Z,25.52
2023-01-22T19:42:05.360Z,27.92
2023-01-22T19:44:36.239Z,25.33
2023-01-22T19:47:04.975Z,28.30
2023-01-22T19:49:34.078Z,28.95
2023-01-22T19:52:02.877Z,32.55
2023-01-22T19:54:31.218Z,29.10
2023-01-22T19:56:59.777Z,27.58
2023-01-22T19:59:28.175Z,31.05
2023-01-22T20:01:57.794Z,28.95
2023-01-22T20:04:32.951Z,29.10
2023-01-22T20:07:05.948Z,28.00
2023-01-22T20:09:38.363Z,24.98
2023-01-22T20:12:09.163Z,30.33
2023-01-22T20:14:43.750Z,34.90
2023-01-22T20:17:15.446Z,29.33
2023-01-22T20:19:48.560Z,29.17
2023-01-22T20:22:17.076Z,34.40
2023-01-22T20:24:45.769Z,30.08
2023-01-22T20:27:14.249Z,26.52
2023-01-22T20:29:43.192Z,29.52
2023-01-22T20:32:11.849Z,31.13
2023-01-22T20:34:42.179Z,28.27
2023-01-22T20:37:10.956Z,30.83
2023-01-22T20:39:39.529Z,28.65
2023-01-22T20:42:08.163Z,32.63
2023-01-22T20:44:37.481Z,29.58
2023-01-22T20:47:06.752Z,27.70
2023-01-22T20:49:35.368Z,26.80
2023-01-22T20:52:06.052Z,29.92
2023-01-22T20:54:36.948Z,26.73
2023-01-22T20:57:11.657Z,30.55
2023-01-22T20:59:39.757Z,30.55
2023-01-22T21:02:11.421Z,29.63
2023-01-22T21:07:09.635Z,25.95
2023-01-22T21:09:41.159Z,31.20
2023-01-22T21:12:10.982Z,30.77
2023-01-22T21:14:39.924Z,30.27
2023-01-22T21:17:08.175Z,29.27
2023-01-22T21:19:37.841Z,25.77
2023-01-22T21:22:07.047Z,28.08
2023-01-22T21:24:35.262Z,27.60
2023-01-22T21:27:03.797Z,30.95
2023-01-22T21:29:32.340Z,36.80
2023-01-22T21:32:00.748Z,28.88
2023-01-22T21:34:30.570Z,31.52
2023-01-22T21:36:59.943Z,35.53
2023-01-22T21:39:30.695Z,31.67
2023-01-22T21:42:18.647Z,33.08
2023-01-22T21:45:05.696Z,26.25
2023-01-22T21:47:34.268Z,25.67
2023-01-22T21:50:03.202Z,25.90
2023-01-22T21:52:31.642Z,28.17
2023-01-22T21:55:00.062Z,29.10
2023-01-22T21:57:28.345Z,23.48
2023-01-22T21:59:56.764Z,27.00
2023-01-22T22:02:25.811Z,26.50
2023-01-22T22:04:56.635Z,24.92
2023-01-22T22:07:24.618Z,25.57
2023-01-22T22:09:52.930Z,23.75
2023-01-22T22:12:21.530Z,24.30
2023-01-22T22:14:49.865Z,28.67
2023-01-22T22:17:18.599Z,27.00
2023-01-22T22:19:46.983Z,28.67
2023-01-22T22:22:17.033Z,27.75
2023-01-22T22:24:45.654Z,28.52
2023-01-22T22:27:13.871Z,28.38
2023-01-22T22:29:42.445Z,22.88
2023-01-22T22:32:10.731Z,26.10
2023-01-22T22:34:38.946Z,25.42
2023-01-22T22:37:07.424Z,27.45
2023-01-22T22:39:36.182Z,29.10
2023-01-22T22:42:04.666Z,27.05
2023-01-22T22:44:32.901Z,27.25
2023-01-22T22:47:01.213Z,28.83
2023-01-22T22:49:29.370Z,30.60
2023-01-22T22:51:58.075Z,29.92
2023-01-22T22:54:26.375Z,26.45
2023-01-22T22:56:55.561Z,23.90
2023-01-22T22:59:23.998Z,25.33
2023-01-22T23:01:52.672Z,26.48
2023-01-22T23:04:21.791Z,28.05
2023-01-22T23:06:49.871Z,30.25
2023-01-22T23:09:20.802Z,26.63
2023-01-22T23:11:56.157Z,30.75
2023-01-22T23:14:24.766Z,27.20
2023-01-22T23:16:53.086Z,33.75
2023-01-22T23:19:25.994Z,31.45
2023-01-22T23:21:59.464Z,26.67
2023-01-22T23:24:28.779Z,30.33
2023-01-22T23:26:57.157Z,30.63
2023-01-22T23:29:27.032Z,29.70
2023-01-22T23:31:58.127Z,31.40
2023-01-22T23:34:26.161Z,30.42
2023-01-22T23:36:54.737Z,33.00
2023-01-22T23:39:23.562Z,32.55
2023-01-22T23:41:52.130Z,31.77
2023-01-22T23:44:20.499Z,30.20
2023-01-22T23:46:48.764Z,27.20
2023-01-22T23:49:16.967Z,29.70
2023-01-22T23:51:45.898Z,35.92
2023-01-22T23:54:13.958Z,30.38
2023-01-22T23:56:41.949Z,30.70
2023-01-22T23:59:11.466Z,31.35
